sensor_id;sensor_type;location;lat;lon;timestamp;pressure;altitude;pressure_sealevel;temperature;humidity
498;BME280;39559;48.630;9.162;2022-07-05T00:01:00;97758.97;;;13.53;100.00
498;BME280;39559;48.630;9.162;2022-07-05T00:03:26;97754.69;;;13.52;100.00
498;BME280;39559;48.630;9.162;2022-07-05T00:07:55;97748.88;;;13.47;100.00
498;BME280;39559;48.630;9.162;2022-07-05T00:10:21;97746.47;;;13.42;100.00
498;BME280;39559;48.630;9.162;2022-07-05T00:12:46;97752.00;;;13.36;100.00
498;BME280;39559;48.630;9.162;2022-07-05T00:15:12;97745.94;;;13.35;100.00
498;BME280;39559;48.630;9.162;2022-07-05T00:17:37;97747.63;;;13.36;100.00
498;BME280;39559;48.630;9.162;2022-07-05T00:20:03;97742.28;;;13.20;100.00
498;BME280;39559;48.630;9.162;2022-07-05T00:22:29;97742.91;;;13.25;100.00
498;BME280;39559;48.630;9.162;2022-07-05T00:24:55;97741.94;;;13.28;100.00
498;BME280;39559;48.630;9.162;2022-07-05T00:27:20;97745.44;;;13.27;100.00
498;BME280;39559;48.630;9.162;2022-07-05T00:31:51;97737.88;;;13.22;100.00
498;BME280;39559;48.630;9.162;2022-07-05T00:34:17;97744.88;;;13.20;100.00
498;BME280;39559;48.630;9.162;2022-07-05T00:36:43;97758.06;;;13.36;100.00
498;BME280;39559;48.630;9.162;2022-07-05T00:39:08;97749.16;;;13.04;100.00
498;BME280;39559;48.630;9.162;2022-07-05T00:41:34;97758.88;;;12.83;100.00
498;BME280;39559;48.630;9.162;2022-07-05T00:44:05;97752.81;;;12.63;100.00
498;BME280;39559;48.630;9.162;2022-07-05T00:46:31;97747.22;;;12.54;100.00
498;BME280;39559;48.630;9.162;2022-07-05T00:48:58;97755.38;;;12.65;100.00
498;BME280;39559;48.630;9.162;2022-07-05T00:51:25;97749.69;;;12.93;100.00
498;BME280;39559;48.630;9.162;2022-07-05T00:55:47;97743.59;;;12.75;100.00
498;BME280;39559;48.630;9.162;2022-07-05T00:58:13;97741.84;;;12.76;100.00
498;BME280;39559;48.630;9.162;2022-07-05T01:00:40;97745.41;;;12.73;100.00
498;BME280;39559;48.630;9.162;2022-07-05T01:03:05;97749.91;;;12.70;100.00
498;BME280;39559;48.630;9.162;2022-07-05T01:05:31;97739.66;;;12.66;100.00
498;BME280;39559;48.630;9.162;2022-07-05T01:07:59;97742.97;;;12.70;100.00
498;BME280;39559;48.630;9.162;2022-07-05T01:10:25;97747.53;;;12.65;100.00
498;BME280;39559;48.630;9.162;2022-07-05T01:12:52;97746.00;;;12.61;100.00
498;BME280;39559;48.630;9.162;2022-07-05T01:15:20;97743.53;;;12.58;100.00
498;BME280;39559;48.630;9.162;2022-07-05T01:19:43;97749.94;;;12.51;100.00
498;BME280;39559;48.630;9.162;2022-07-05T01:22:17;97748.09;;;12.53;100.00
498;BME280;39559;48.630;9.162;2022-07-05T01:24:47;97747.41;;;12.49;100.00
498;BME280;39559;48.630;9.162;2022-07-05T01:27:13;97753.31;;;12.53;100.00
498;BME280;39559;48.630;9.162;2022-07-05T01:29:41;97748.19;;;12.51;100.00
498;BME280;39559;48.630;9.162;2022-07-05T01:32:07;97756.28;;;12.45;100.00
498;BME280;39559;48.630;9.162;2022-07-05T01:34:37;97749.31;;;12.26;100.00
498;BME280;39559;48.630;9.162;2022-07-05T01:37:03;97763.38;;;12.22;100.00
498;BME280;39559;48.630;9.162;2022-07-05T01:39:30;97758.03;;;12.25;100.00
498;BME280;39559;48.630;9.162;2022-07-05T01:43:39;97765.84;;;12.25;100.00
498;BME280;39559;48.630;9.162;2022-07-05T01:46:05;97765.13;;;12.22;100.00
498;BME280;39559;48.630;9.162;2022-07-05T01:48:35;97761.63;;;12.23;100.00
498;BME280;39559;48.630;9.162;2022-07-05T01:51:04;97770.28;;;12.23;100.00
498;BME280;39559;48.630;9.162;2022-07-05T01:53:31;97765.28;;;12.19;100.00
498;BME280;39559;48.630;9.162;2022-07-05T01:55:58;97759.44;;;12.14;100.00
498;BME280;39559;48.630;9.162;2022-07-05T01:58:24;97761.25;;;12.12;100.00
498;BME280;39559;48.630;9.162;2022-07-05T02:00:54;97771.75;;;12.10;100.00
498;BME280;39559;48.630;9.162;2022-07-05T02:03:21;97759.84;;;12.04;100.00
498;BME280;39559;48.630;9.162;2022-07-05T02:07:36;97757.94;;;12.08;100.00
498;BME280;39559;48.630;9.162;2022-07-05T02:10:01;97756.91;;;12.12;100.00
498;BME280;39559;48.630;9.162;2022-07-05T02:12:27;97761.16;;;12.13;100.00
498;BME280;39559;48.630;9.162;2022-07-05T02:14:52;97751.03;;;12.07;100.00
498;BME280;39559;48.630;9.162;2022-07-05T02:17:18;97757.44;;;12.00;100.00
498;BME280;39559;48.630;9.162;2022-07-05T02:19:43;97749.63;;;12.00;100.00
498;BME280;39559;48.630;9.162;2022-07-05T02:22:09;97750.63;;;11.97;100.00
498;BME280;39559;48.630;9.162;2022-07-05T02:24:34;97754.69;;;12.03;100.00
498;BME280;39559;48.630;9.162;2022-07-05T02:27:00;97754.06;;;11.98;100.00
498;BME280;39559;48.630;9.162;2022-07-05T02:31:31;97754.34;;;11.92;100.00
498;BME280;39559;48.630;9.162;2022-07-05T02:33:56;97759.25;;;11.77;100.00
498;BME280;39559;48.630;9.162;2022-07-05T02:36:23;97755.47;;;11.64;100.00
498;BME280;39559;48.630;9.162;2022-07-05T02:38:49;97757.94;;;11.67;100.00
498;BME280;39559;48.630;9.162;2022-07-05T02:41:14;97761.59;;;11.63;100.00
498;BME280;39559;48.630;9.162;2022-07-05T02:43:40;97759.97;;;11.81;100.00
498;BME280;39559;48.630;9.162;2022-07-05T02:46:07;97759.03;;;11.82;100.00
498;BME280;39559;48.630;9.162;2022-07-05T02:48:35;97765.47;;;11.73;100.00
498;BME280;39559;48.630;9.162;2022-07-05T02:51:02;97764.31;;;11.60;100.00
498;BME280;39559;48.630;9.162;2022-07-05T02:55:28;97764.03;;;11.45;100.00
498;BME280;39559;48.630;9.162;2022-07-05T02:57:53;97767.44;;;11.47;100.00
498;BME280;39559;48.630;9.162;2022-07-05T03:00:19;97771.53;;;11.53;100.00
498;BME280;39559;48.630;9.162;2022-07-05T03:02:45;97768.91;;;11.53;100.00
498;BME280;39559;48.630;9.162;2022-07-05T03:05:10;97767.44;;;11.47;100.00
498;BME280;39559;48.630;9.162;2022-07-05T03:07:36;97767.69;;;11.41;100.00
498;BME280;39559;48.630;9.162;2022-07-05T03:10:01;97772.84;;;11.43;100.00
498;BME280;39559;48.630;9.162;2022-07-05T03:12:27;97773.69;;;11.43;100.00
498;BME280;39559;48.630;9.162;2022-07-05T03:14:52;97770.19;;;11.44;100.00
498;BME280;39559;48.630;9.162;2022-07-05T03:19:25;97773.22;;;11.33;100.00
498;BME280;39559;48.630;9.162;2022-07-05T03:21:51;97782.91;;;11.30;100.00
498;BME280;39559;48.630;9.162;2022-07-05T03:24:16;97775.66;;;11.16;100.00
498;BME280;39559;48.630;9.162;2022-07-05T03:26:42;97781.69;;;11.17;100.00
498;BME280;39559;48.630;9.162;2022-07-05T03:29:08;97785.88;;;11.21;100.00
498;BME280;39559;48.630;9.162;2022-07-05T03:31:33;97790.03;;;11.25;100.00
498;BME280;39559;48.630;9.162;2022-07-05T03:33:59;97788.16;;;11.28;100.00
498;BME280;39559;48.630;9.162;2022-07-05T03:36:25;97788.31;;;11.24;100.00
498;BME280;39559;48.630;9.162;2022-07-05T03:38:50;97788.63;;;11.16;100.00
498;BME280;39559;48.630;9.162;2022-07-05T03:43:22;97794.94;;;11.10;100.00
498;BME280;39559;48.630;9.162;2022-07-05T03:45:48;97798.19;;;11.16;100.00
498;BME280;39559;48.630;9.162;2022-07-05T03:48:13;97801.03;;;11.09;100.00
498;BME280;39559;48.630;9.162;2022-07-05T03:50:39;97800.66;;;11.19;100.00
498;BME280;39559;48.630;9.162;2022-07-05T03:53:04;97807.19;;;11.07;100.00
498;BME280;39559;48.630;9.162;2022-07-05T03:55:30;97806.00;;;11.16;100.00
498;BME280;39559;48.630;9.162;2022-07-05T03:57:55;97800.50;;;11.23;100.00
498;BME280;39559;48.630;9.162;2022-07-05T04:00:21;97805.84;;;11.19;100.00
498;BME280;39559;48.630;9.162;2022-07-05T04:02:46;97814.47;;;11.21;100.00
498;BME280;39559;48.630;9.162;2022-07-05T04:07:19;97812.59;;;11.24;100.00
498;BME280;39559;48.630;9.162;2022-07-05T04:09:44;97812.28;;;11.32;100.00
498;BME280;39559;48.630;9.162;2022-07-05T04:12:10;97817.69;;;11.26;100.00
498;BME280;39559;48.630;9.162;2022-07-05T04:14:36;97821.22;;;11.25;100.00
498;BME280;39559;48.630;9.162;2022-07-05T04:17:01;97823.81;;;11.25;100.00
498;BME280;39559;48.630;9.162;2022-07-05T04:19:27;97832.84;;;11.16;100.00
498;BME280;39559;48.630;9.162;2022-07-05T04:21:52;97833.31;;;11.04;100.00
498;BME280;39559;48.630;9.162;2022-07-05T04:24:18;97832.63;;;10.99;100.00
498;BME280;39559;48.630;9.162;2022-07-05T04:26:44;97824.91;;;10.97;100.00
498;BME280;39559;48.630;9.162;2022-07-05T04:31:16;97828.09;;;11.04;100.00
498;BME280;39559;48.630;9.162;2022-07-05T04:33:41;97833.03;;;11.11;100.00
498;BME280;39559;48.630;9.162;2022-07-05T04:36:07;97831.75;;;11.22;100.00
498;BME280;39559;48.630;9.162;2022-07-05T04:38:32;97827.09;;;11.30;100.00
498;BME280;39559;48.630;9.162;2022-07-05T04:40:58;97836.88;;;11.45;100.00
498;BME280;39559;48.630;9.162;2022-07-05T04:43:23;97836.03;;;11.45;100.00
498;BME280;39559;48.630;9.162;2022-07-05T04:45:49;97839.47;;;11.45;100.00
498;BME280;39559;48.630;9.162;2022-07-05T04:48:14;97843.16;;;11.40;100.00
498;BME280;39559;48.630;9.162;2022-07-05T04:50:40;97843.38;;;11.35;100.00
498;BME280;39559;48.630;9.162;2022-07-05T04:55:13;97852.44;;;11.25;100.00
498;BME280;39559;48.630;9.162;2022-07-05T04:57:39;97848.19;;;11.22;100.00
498;BME280;39559;48.630;9.162;2022-07-05T05:00:06;97850.34;;;11.33;100.00
498;BME280;39559;48.630;9.162;2022-07-05T05:02:32;97840.69;;;11.37;100.00
498;BME280;39559;48.630;9.162;2022-07-05T05:04:58;97845.50;;;11.46;100.00
498;BME280;39559;48.630;9.162;2022-07-05T05:07:23;97833.78;;;11.58;100.00
498;BME280;39559;48.630;9.162;2022-07-05T05:09:49;97835.09;;;11.68;100.00
498;BME280;39559;48.630;9.162;2022-07-05T05:12:14;97833.59;;;11.83;100.00
498;BME280;39559;48.630;9.162;2022-07-05T05:14:40;97839.00;;;11.99;100.00
498;BME280;39559;48.630;9.162;2022-07-05T05:19:10;97833.16;;;12.14;100.00
498;BME280;39559;48.630;9.162;2022-07-05T05:21:35;97841.63;;;12.19;100.00
498;BME280;39559;48.630;9.162;2022-07-05T05:24:01;97840.50;;;12.25;100.00
498;BME280;39559;48.630;9.162;2022-07-05T05:26:27;97841.81;;;12.35;100.00
498;BME280;39559;48.630;9.162;2022-07-05T05:28:53;97842.25;;;12.45;100.00
498;BME280;39559;48.630;9.162;2022-07-05T05:31:18;97841.81;;;12.54;100.00
498;BME280;39559;48.630;9.162;2022-07-05T05:33:45;97845.34;;;12.53;100.00
498;BME280;39559;48.630;9.162;2022-07-05T05:36:10;97848.31;;;12.64;100.00
498;BME280;39559;48.630;9.162;2022-07-05T05:38:36;97841.75;;;12.75;100.00
498;BME280;39559;48.630;9.162;2022-07-05T05:43:07;97843.38;;;12.96;100.00
498;BME280;39559;48.630;9.162;2022-07-05T05:45:33;97840.28;;;13.07;100.00
498;BME280;39559;48.630;9.162;2022-07-05T05:47:59;97848.28;;;13.21;100.00
498;BME280;39559;48.630;9.162;2022-07-05T05:50:29;97853.03;;;13.32;100.00
498;BME280;39559;48.630;9.162;2022-07-05T05:52:56;97853.50;;;13.40;100.00
498;BME280;39559;48.630;9.162;2022-07-05T05:55:23;97857.28;;;13.52;100.00
498;BME280;39559;48.630;9.162;2022-07-05T05:57:49;97856.84;;;13.61;100.00
498;BME280;39559;48.630;9.162;2022-07-05T06:00:15;97858.78;;;13.75;100.00
498;BME280;39559;48.630;9.162;2022-07-05T06:02:41;97857.47;;;13.84;100.00
498;BME280;39559;48.630;9.162;2022-07-05T06:07:04;97863.25;;;14.08;100.00
498;BME280;39559;48.630;9.162;2022-07-05T06:09:30;97862.50;;;14.22;100.00
498;BME280;39559;48.630;9.162;2022-07-05T06:11:55;97866.28;;;14.34;100.00
498;BME280;39559;48.630;9.162;2022-07-05T06:14:21;97868.09;;;14.49;100.00
498;BME280;39559;48.630;9.162;2022-07-05T06:16:46;97870.94;;;14.62;100.00
498;BME280;39559;48.630;9.162;2022-07-05T06:19:12;97866.16;;;14.70;100.00
498;BME280;39559;48.630;9.162;2022-07-05T06:21:37;97870.47;;;14.87;100.00
498;BME280;39559;48.630;9.162;2022-07-05T06:24:03;97864.00;;;15.10;100.00
498;BME280;39559;48.630;9.162;2022-07-05T06:26:28;97874.03;;;15.18;100.00
498;BME280;39559;48.630;9.162;2022-07-05T06:31:02;97871.72;;;15.44;100.00
498;BME280;39559;48.630;9.162;2022-07-05T06:33:27;97872.16;;;15.52;100.00
498;BME280;39559;48.630;9.162;2022-07-05T06:35:53;97869.69;;;15.65;100.00
498;BME280;39559;48.630;9.162;2022-07-05T06:38:19;97871.88;;;15.72;100.00
498;BME280;39559;48.630;9.162;2022-07-05T06:40:44;97875.31;;;15.89;100.00
498;BME280;39559;48.630;9.162;2022-07-05T06:43:12;97873.13;;;15.97;100.00
498;BME280;39559;48.630;9.162;2022-07-05T06:45:39;97873.41;;;16.07;100.00
498;BME280;39559;48.630;9.162;2022-07-05T06:48:09;97881.56;;;16.17;100.00
498;BME280;39559;48.630;9.162;2022-07-05T06:50:40;97881.00;;;16.26;100.00
498;BME280;39559;48.630;9.162;2022-07-05T06:54:59;97888.34;;;16.49;100.00
498;BME280;39559;48.630;9.162;2022-07-05T06:57:25;97885.47;;;16.54;100.00
498;BME280;39559;48.630;9.162;2022-07-05T06:59:51;97882.53;;;16.73;100.00
498;BME280;39559;48.630;9.162;2022-07-05T07:02:17;97890.19;;;17.34;97.64
498;BME280;39559;48.630;9.162;2022-07-05T07:04:45;97877.50;;;17.40;100.00
498;BME280;39559;48.630;9.162;2022-07-05T07:07:11;97886.78;;;17.46;100.00
498;BME280;39559;48.630;9.162;2022-07-05T07:09:59;97883.25;;;17.60;100.00
498;BME280;39559;48.630;9.162;2022-07-05T07:12:25;97884.00;;;17.62;97.08
498;BME280;39559;48.630;9.162;2022-07-05T07:14:50;97880.13;;;17.68;98.37
498;BME280;39559;48.630;9.162;2022-07-05T07:18:56;97875.63;;;17.97;92.54
498;BME280;39559;48.630;9.162;2022-07-05T07:21:22;97882.56;;;17.98;93.49
498;BME280;39559;48.630;9.162;2022-07-05T07:23:47;97876.53;;;18.23;89.03
498;BME280;39559;48.630;9.162;2022-07-05T07:26:13;97884.69;;;18.18;81.53
498;BME280;39559;48.630;9.162;2022-07-05T07:28:39;97881.16;;;18.32;80.79
498;BME280;39559;48.630;9.162;2022-07-05T07:31:06;97885.53;;;18.32;83.63
498;BME280;39559;48.630;9.162;2022-07-05T07:33:32;97882.63;;;18.36;79.75
498;BME280;39559;48.630;9.162;2022-07-05T07:35:58;97886.63;;;18.55;81.62
498;BME280;39559;48.630;9.162;2022-07-05T07:38:24;97891.69;;;18.84;79.11
498;BME280;39559;48.630;9.162;2022-07-05T07:42:53;97885.06;;;18.91;79.43
498;BME280;39559;48.630;9.162;2022-07-05T07:45:18;97889.56;;;18.76;80.88
498;BME280;39559;48.630;9.162;2022-07-05T07:47:44;97890.38;;;19.02;75.57
498;BME280;39559;48.630;9.162;2022-07-05T07:50:10;97893.81;;;19.15;80.17
498;BME280;39559;48.630;9.162;2022-07-05T07:52:35;97894.78;;;19.14;73.27
498;BME280;39559;48.630;9.162;2022-07-05T07:55:04;97893.94;;;19.27;73.60
498;BME280;39559;48.630;9.162;2022-07-05T07:57:30;97889.50;;;19.27;74.90
498;BME280;39559;48.630;9.162;2022-07-05T07:59:56;97887.75;;;19.39;70.50
498;BME280;39559;48.630;9.162;2022-07-05T08:02:22;97886.66;;;19.30;70.36
498;BME280;39559;48.630;9.162;2022-07-05T08:06:51;97893.13;;;19.50;74.50
498;BME280;39559;48.630;9.162;2022-07-05T08:09:16;97891.25;;;19.64;73.54
498;BME280;39559;48.630;9.162;2022-07-05T08:11:42;97895.59;;;19.65;69.77
498;BME280;39559;48.630;9.162;2022-07-05T08:14:08;97895.09;;;19.84;71.97
498;BME280;39559;48.630;9.162;2022-07-05T08:16:34;97896.50;;;19.77;70.81
498;BME280;39559;48.630;9.162;2022-07-05T08:18:59;97895.25;;;19.93;71.00
498;BME280;39559;48.630;9.162;2022-07-05T08:21:44;97890.09;;;20.27;78.77
498;BME280;39559;48.630;9.162;2022-07-05T08:24:11;97889.28;;;20.38;74.98
498;BME280;39559;48.630;9.162;2022-07-05T08:26:38;97890.31;;;20.24;78.07
498;BME280;39559;48.630;9.162;2022-07-05T08:30:48;97886.34;;;20.77;69.52
498;BME280;39559;48.630;9.162;2022-07-05T08:33:13;97890.66;;;20.66;73.64
498;BME280;39559;48.630;9.162;2022-07-05T08:35:39;97886.34;;;20.65;69.18
498;BME280;39559;48.630;9.162;2022-07-05T08:38:04;97880.47;;;20.62;69.51
498;BME280;39559;48.630;9.162;2022-07-05T08:40:32;97886.56;;;20.62;70.60
498;BME280;39559;48.630;9.162;2022-07-05T08:43:02;97887.41;;;20.63;70.28
498;BME280;39559;48.630;9.162;2022-07-05T08:45:31;97882.03;;;20.98;70.06
498;BME280;39559;48.630;9.162;2022-07-05T08:47:58;97874.09;;;21.09;64.94
498;BME280;39559;48.630;9.162;2022-07-05T08:50:26;97868.59;;;21.01;68.78
498;BME280;39559;48.630;9.162;2022-07-05T08:54:46;97877.09;;;21.16;65.92
498;BME280;39559;48.630;9.162;2022-07-05T08:57:11;97876.00;;;21.19;68.26
498;BME280;39559;48.630;9.162;2022-07-05T08:59:37;97877.03;;;21.39;69.75
498;BME280;39559;48.630;9.162;2022-07-05T09:02:03;97877.03;;;21.39;71.44
498;BME280;39559;48.630;9.162;2022-07-05T09:04:31;97869.13;;;21.82;69.24
498;BME280;39559;48.630;9.162;2022-07-05T09:07:03;97875.00;;;21.86;64.35
498;BME280;39559;48.630;9.162;2022-07-05T09:09:32;97873.94;;;21.77;70.70
498;BME280;39559;48.630;9.162;2022-07-05T09:11:59;97872.22;;;21.88;63.63
498;BME280;39559;48.630;9.162;2022-07-05T09:14:25;97872.28;;;21.97;63.92
498;BME280;39559;48.630;9.162;2022-07-05T09:18:50;97869.41;;;22.21;63.83
498;BME280;39559;48.630;9.162;2022-07-05T09:21:24;97868.38;;;22.13;65.63
498;BME280;39559;48.630;9.162;2022-07-05T09:23:54;97869.13;;;22.36;64.42
498;BME280;39559;48.630;9.162;2022-07-05T09:26:21;97870.34;;;22.32;60.81
498;BME280;39559;48.630;9.162;2022-07-05T09:28:55;97874.25;;;22.58;59.24
498;BME280;39559;48.630;9.162;2022-07-05T09:31:33;97874.44;;;22.67;58.36
498;BME280;39559;48.630;9.162;2022-07-05T09:34:12;97880.69;;;22.87;58.33
498;BME280;39559;48.630;9.162;2022-07-05T09:36:57;97869.19;;;22.76;55.63
498;BME280;39559;48.630;9.162;2022-07-05T09:42:38;97875.66;;;22.93;57.99
498;BME280;39559;48.630;9.162;2022-07-05T09:45:04;97889.97;;;23.12;52.09
498;BME280;39559;48.630;9.162;2022-07-05T09:47:31;97879.34;;;22.71;53.26
498;BME280;39559;48.630;9.162;2022-07-05T09:49:57;97880.69;;;22.96;53.51
498;BME280;39559;48.630;9.162;2022-07-05T09:52:36;97890.59;;;22.94;57.45
498;BME280;39559;48.630;9.162;2022-07-05T09:55:07;97891.72;;;22.40;57.19
498;BME280;39559;48.630;9.162;2022-07-05T09:57:35;97888.56;;;22.14;54.41
498;BME280;39559;48.630;9.162;2022-07-05T10:00:06;97887.84;;;22.12;54.47
498;BME280;39559;48.630;9.162;2022-07-05T10:06:34;97881.94;;;22.61;52.75
498;BME280;39559;48.630;9.162;2022-07-05T10:09:00;97879.91;;;22.75;54.37
498;BME280;39559;48.630;9.162;2022-07-05T10:11:26;97875.50;;;22.85;53.82
498;BME280;39559;48.630;9.162;2022-07-05T10:13:55;97873.38;;;23.10;50.46
498;BME280;39559;48.630;9.162;2022-07-05T10:16:22;97874.28;;;23.30;51.03
498;BME280;39559;48.630;9.162;2022-07-05T10:18:51;97871.84;;;23.07;52.59
498;BME280;39559;48.630;9.162;2022-07-05T10:21:18;97875.56;;;23.45;50.29
498;BME280;39559;48.630;9.162;2022-07-05T10:23:50;97877.72;;;23.81;49.57
498;BME280;39559;48.630;9.162;2022-07-05T10:26:22;97882.88;;;23.92;47.94
498;BME280;39559;48.630;9.162;2022-07-05T10:30:30;97880.97;;;22.62;52.08
498;BME280;39559;48.630;9.162;2022-07-05T10:32:57;97886.50;;;22.29;55.58
498;BME280;39559;48.630;9.162;2022-07-05T10:35:22;97887.84;;;21.91;54.10
498;BME280;39559;48.630;9.162;2022-07-05T10:37:49;97887.31;;;21.97;55.69
498;BME280;39559;48.630;9.162;2022-07-05T10:40:16;97880.97;;;22.20;53.33
498;BME280;39559;48.630;9.162;2022-07-05T10:42:48;97874.84;;;22.62;46.97
498;BME280;39559;48.630;9.162;2022-07-05T10:45:47;97872.69;;;23.17;47.27
498;BME280;39559;48.630;9.162;2022-07-05T10:48:20;97866.06;;;23.43;50.13
498;BME280;39559;48.630;9.162;2022-07-05T10:54:26;97862.75;;;23.60;49.65
498;BME280;39559;48.630;9.162;2022-07-05T10:57:20;97863.47;;;23.91;47.50
498;BME280;39559;48.630;9.162;2022-07-05T11:00:05;97864.06;;;23.85;51.01
498;BME280;39559;48.630;9.162;2022-07-05T11:02:31;97867.09;;;23.71;53.26
498;BME280;39559;48.630;9.162;2022-07-05T11:04:57;97872.81;;;23.95;48.63
498;BME280;39559;48.630;9.162;2022-07-05T11:10:24;97877.28;;;23.56;52.18
498;BME280;39559;48.630;9.162;2022-07-05T11:12:50;97881.41;;;23.39;53.75
498;BME280;39559;48.630;9.162;2022-07-05T11:15:15;97869.56;;;23.03;50.61
498;BME280;39559;48.630;9.162;2022-07-05T11:18:23;97875.72;;;22.41;58.49
498;BME280;39559;48.630;9.162;2022-07-05T11:20:49;97873.03;;;22.62;52.18
498;BME280;39559;48.630;9.162;2022-07-05T11:23:26;97877.28;;;22.85;51.41
498;BME280;39559;48.630;9.162;2022-07-05T11:25:53;97877.81;;;22.69;52.92
498;BME280;39559;48.630;9.162;2022-07-05T11:28:20;97875.19;;;22.78;56.08
498;BME280;39559;48.630;9.162;2022-07-05T11:30:51;97876.34;;;23.26;54.45
498;BME280;39559;48.630;9.162;2022-07-05T11:33:50;97872.25;;;23.72;47.78
498;BME280;39559;48.630;9.162;2022-07-05T11:36:22;97871.72;;;23.88;47.79
498;BME280;39559;48.630;9.162;2022-07-05T11:39:17;97861.34;;;24.24;49.45
498;BME280;39559;48.630;9.162;2022-07-05T11:42:20;97863.41;;;24.40;44.84
498;BME280;39559;48.630;9.162;2022-07-05T11:44:49;97863.00;;;24.35;45.23
498;BME280;39559;48.630;9.162;2022-07-05T11:47:19;97862.22;;;24.15;52.09
498;BME280;39559;48.630;9.162;2022-07-05T11:49:57;97859.56;;;23.86;49.15
498;BME280;39559;48.630;9.162;2022-07-05T11:52:30;97856.72;;;24.36;48.44
498;BME280;39559;48.630;9.162;2022-07-05T11:54:57;97852.91;;;24.48;44.70
498;BME280;39559;48.630;9.162;2022-07-05T11:57:23;97854.69;;;24.01;45.88
498;BME280;39559;48.630;9.162;2022-07-05T11:59:50;97855.22;;;23.65;46.66
498;BME280;39559;48.630;9.162;2022-07-05T12:02:16;97851.31;;;23.79;48.56
498;BME280;39559;48.630;9.162;2022-07-05T12:06:12;97841.97;;;24.71;46.67
498;BME280;39559;48.630;9.162;2022-07-05T12:08:38;97845.03;;;24.76;45.46
498;BME280;39559;48.630;9.162;2022-07-05T12:11:04;97835.00;;;24.98;48.36
498;BME280;39559;48.630;9.162;2022-07-05T12:13:50;97833.22;;;25.16;46.12
498;BME280;39559;48.630;9.162;2022-07-05T12:16:16;97840.13;;;25.37;44.40
498;BME280;39559;48.630;9.162;2022-07-05T12:18:55;97834.44;;;25.50;46.80
498;BME280;39559;48.630;9.162;2022-07-05T12:21:22;97832.69;;;25.58;44.78
498;BME280;39559;48.630;9.162;2022-07-05T12:23:50;97830.56;;;25.80;46.41
498;BME280;39559;48.630;9.162;2022-07-05T12:26:17;97826.16;;;25.71;43.23
498;BME280;39559;48.630;9.162;2022-07-05T12:30:07;97836.06;;;25.05;47.71
498;BME280;39559;48.630;9.162;2022-07-05T12:32:54;97828.97;;;25.69;43.68
498;BME280;39559;48.630;9.162;2022-07-05T12:35:30;97825.97;;;25.72;44.48
498;BME280;39559;48.630;9.162;2022-07-05T12:38:02;97830.94;;;25.85;48.91
498;BME280;39559;48.630;9.162;2022-07-05T12:40:28;97828.06;;;25.60;50.91
498;BME280;39559;48.630;9.162;2022-07-05T12:43:04;97836.25;;;25.49;45.20
498;BME280;39559;48.630;9.162;2022-07-05T12:45:31;97823.34;;;25.54;50.94
498;BME280;39559;48.630;9.162;2022-07-05T12:47:59;97827.53;;;25.93;45.50
498;BME280;39559;48.630;9.162;2022-07-05T12:50:26;97815.97;;;26.28;40.04
498;BME280;39559;48.630;9.162;2022-07-05T12:54:00;97815.47;;;26.07;47.56
498;BME280;39559;48.630;9.162;2022-07-05T12:56:58;97823.25;;;26.18;42.24
498;BME280;39559;48.630;9.162;2022-07-05T13:00:04;97813.50;;;26.09;45.78
498;BME280;39559;48.630;9.162;2022-07-05T13:02:34;97821.63;;;26.59;45.90
498;BME280;39559;48.630;9.162;2022-07-05T13:05:00;97816.66;;;26.56;42.06
498;BME280;39559;48.630;9.162;2022-07-05T13:07:26;97826.84;;;26.61;43.91
498;BME280;39559;48.630;9.162;2022-07-05T13:09:52;97825.25;;;25.62;45.22
498;BME280;39559;48.630;9.162;2022-07-05T13:12:19;97826.16;;;25.53;48.62
498;BME280;39559;48.630;9.162;2022-07-05T13:14:52;97828.19;;;25.13;46.88
498;BME280;39559;48.630;9.162;2022-07-05T13:17:53;97832.31;;;25.53;47.78
498;BME280;39559;48.630;9.162;2022-07-05T13:20:19;97827.22;;;25.96;43.60
498;BME280;39559;48.630;9.162;2022-07-05T13:22:46;97828.13;;;25.68;41.52
498;BME280;39559;48.630;9.162;2022-07-05T13:25:13;97823.72;;;25.41;42.49
498;BME280;39559;48.630;9.162;2022-07-05T13:27:39;97827.53;;;24.36;45.70
498;BME280;39559;48.630;9.162;2022-07-05T13:30:06;97824.31;;;24.32;51.85
498;BME280;39559;48.630;9.162;2022-07-05T13:32:32;97821.00;;;24.30;51.83
498;BME280;39559;48.630;9.162;2022-07-05T13:34:57;97829.81;;;23.92;53.53
498;BME280;39559;48.630;9.162;2022-07-05T13:37:23;97833.63;;;23.80;51.80
498;BME280;39559;48.630;9.162;2022-07-05T13:41:47;97824.09;;;24.16;52.83
498;BME280;39559;48.630;9.162;2022-07-05T13:44:13;97817.59;;;24.85;50.37
498;BME280;39559;48.630;9.162;2022-07-05T13:46:38;97818.53;;;25.12;50.91
498;BME280;39559;48.630;9.162;2022-07-05T13:49:04;97814.09;;;25.13;51.01
498;BME280;39559;48.630;9.162;2022-07-05T13:51:29;97811.66;;;25.47;48.43
498;BME280;39559;48.630;9.162;2022-07-05T13:53:55;97813.00;;;25.87;48.02
498;BME280;39559;48.630;9.162;2022-07-05T13:56:21;97814.84;;;25.33;49.60
498;BME280;39559;48.630;9.162;2022-07-05T13:58:48;97819.47;;;25.31;51.70
498;BME280;39559;48.630;9.162;2022-07-05T14:01:13;97810.66;;;25.66;49.77
498;BME280;39559;48.630;9.162;2022-07-05T14:05:40;97811.81;;;25.63;49.74
498;BME280;39559;48.630;9.162;2022-07-05T14:08:05;97811.44;;;25.13;47.07
498;BME280;39559;48.630;9.162;2022-07-05T14:10:31;97805.47;;;25.46;44.50
498;BME280;39559;48.630;9.162;2022-07-05T14:12:56;97808.44;;;25.79;45.76
498;BME280;39559;48.630;9.162;2022-07-05T14:15:22;97802.81;;;26.00;46.80
498;BME280;39559;48.630;9.162;2022-07-05T14:17:47;97801.06;;;26.09;46.72
498;BME280;39559;48.630;9.162;2022-07-05T14:20:13;97797.22;;;26.12;42.59
498;BME280;39559;48.630;9.162;2022-07-05T14:22:39;97799.38;;;25.72;45.53
498;BME280;39559;48.630;9.162;2022-07-05T14:25:04;97798.13;;;25.58;48.96
498;BME280;39559;48.630;9.162;2022-07-05T14:29:34;97795.38;;;25.32;49.69
498;BME280;39559;48.630;9.162;2022-07-05T14:31:59;97807.91;;;24.94;48.38
498;BME280;39559;48.630;9.162;2022-07-05T14:34:25;97797.03;;;24.60;47.55